sensor_id;sensor_type;location;lat;lon;timestamp;P1;durP1;ratioP1;P2;durP2;ratioP2
65202;SDS011;51788;45.124;38.966;2022-12-07T00:01:16;11.35;;;10.25;;
65202;SDS011;51788;45.124;38.966;2022-12-07T00:03:44;12.30;;;7.65;;
65202;SDS011;51788;45.124;38.966;2022-12-07T00:06:11;8.90;;;7.65;;
65202;SDS011;51788;45.124;38.966;2022-12-07T00:08:39;10.65;;;8.13;;
65202;SDS011;51788;45.124;38.966;2022-12-07T00:11:10;8.60;;;7.63;;
65202;SDS011;51788;45.124;38.966;2022-12-07T00:13:38;10.35;;;8.80;;
65202;SDS011;51788;45.124;38.966;2022-12-07T00:16:09;11.25;;;10.18;;
65202;SDS011;51788;45.124;38.966;2022-12-07T00:18:40;10.60;;;8.50;;
65202;SDS011;51788;45.124;38.966;2022-12-07T00:21:08;11.85;;;8.52;;
65202;SDS011;51788;45.124;38.966;2022-12-07T00:23:36;9.88;;;8.48;;
65202;SDS011;51788;45.124;38.966;2022-12-07T00:26:04;7.93;;;7.13;;
65202;SDS011;51788;45.124;38.966;2022-12-07T00:28:34;10.40;;;8.77;;
65202;SDS011;51788;45.124;38.966;2022-12-07T00:31:02;7.65;;;6.82;;
65202;SDS011;51788;45.124;38.966;2022-12-07T00:33:30;10.50;;;9.05;;
65202;SDS011;51788;45.124;38.966;2022-12-07T00:35:57;9.57;;;7.63;;
65202;SDS011;51788;45.124;38.966;2022-12-07T00:38:24;9.70;;;8.77;;
65202;SDS011;51788;45.124;38.966;2022-12-07T00:40:56;10.95;;;8.55;;
65202;SDS011;51788;45.124;38.966;2022-12-07T00:43:23;11.00;;;8.85;;
65202;SDS011;51788;45.124;38.966;2022-12-07T00:45:50;9.30;;;8.07;;
65202;SDS011;51788;45.124;38.966;2022-12-07T00:48:15;10.25;;;7.53;;
65202;SDS011;51788;45.124;38.966;2022-12-07T00:50:41;7.30;;;6.60;;
65202;SDS011;51788;45.124;38.966;2022-12-07T00:53:07;9.05;;;8.18;;
65202;SDS011;51788;45.124;38.966;2022-12-07T00:55:34;9.02;;;7.35;;
65202;SDS011;51788;45.124;38.966;2022-12-07T00:58:01;10.45;;;9.02;;
65202;SDS011;51788;45.124;38.966;2022-12-07T01:00:27;9.20;;;8.18;;
65202;SDS011;51788;45.124;38.966;2022-12-07T01:02:53;8.73;;;6.60;;
65202;SDS011;51788;45.124;38.966;2022-12-07T01:05:19;8.95;;;7.85;;
65202;SDS011;51788;45.124;38.966;2022-12-07T01:07:45;12.45;;;8.43;;
65202;SDS011;51788;45.124;38.966;2022-12-07T01:10:12;13.25;;;9.50;;
65202;SDS011;51788;45.124;38.966;2022-12-07T01:12:40;12.60;;;8.50;;
65202;SDS011;51788;45.124;38.966;2022-12-07T01:15:07;14.27;;;9.85;;
65202;SDS011;51788;45.124;38.966;2022-12-07T01:17:33;42.05;;;21.05;;
65202;SDS011;51788;45.124;38.966;2022-12-07T01:19:59;17.73;;;12.52;;
65202;SDS011;51788;45.124;38.966;2022-12-07T01:22:26;33.28;;;18.20;;
65202;SDS011;51788;45.124;38.966;2022-12-07T01:24:52;26.98;;;14.25;;
65202;SDS011;51788;45.124;38.966;2022-12-07T01:27:18;26.13;;;15.55;;
65202;SDS011;51788;45.124;38.966;2022-12-07T01:29:44;34.55;;;11.60;;
65202;SDS011;51788;45.124;38.966;2022-12-07T01:32:10;23.40;;;14.80;;
65202;SDS011;51788;45.124;38.966;2022-12-07T01:34:36;18.42;;;13.35;;
65202;SDS011;51788;45.124;38.966;2022-12-07T01:37:02;15.35;;;12.00;;
65202;SDS011;51788;45.124;38.966;2022-12-07T01:39:28;11.93;;;9.55;;
65202;SDS011;51788;45.124;38.966;2022-12-07T01:41:54;11.23;;;8.82;;
65202;SDS011;51788;45.124;38.966;2022-12-07T01:44:22;9.75;;;7.60;;
65202;SDS011;51788;45.124;38.966;2022-12-07T01:47:02;9.05;;;6.18;;
65202;SDS011;51788;45.124;38.966;2022-12-07T01:49:36;8.57;;;6.97;;
65202;SDS011;51788;45.124;38.966;2022-12-07T01:55:06;9.68;;;6.70;;
65202;SDS011;51788;45.124;38.966;2022-12-07T01:57:35;9.02;;;6.47;;
65202;SDS011;51788;45.124;38.966;2022-12-07T02:00:04;9.20;;;7.75;;
65202;SDS011;51788;45.124;38.966;2022-12-07T02:02:48;11.52;;;8.18;;
65202;SDS011;51788;45.124;38.966;2022-12-07T02:05:34;10.98;;;8.57;;
65202;SDS011;51788;45.124;38.966;2022-12-07T02:08:02;9.05;;;6.05;;
65202;SDS011;51788;45.124;38.966;2022-12-07T02:10:29;8.02;;;6.85;;
65202;SDS011;51788;45.124;38.966;2022-12-07T02:13:01;10.57;;;8.32;;
65202;SDS011;51788;45.124;38.966;2022-12-07T02:31:50;13.70;;;10.30;;
65202;SDS011;51788;45.124;38.966;2022-12-07T02:34:31;10.13;;;8.88;;
65202;SDS011;51788;45.124;38.966;2022-12-07T02:37:09;8.55;;;7.75;;
65202;SDS011;51788;45.124;38.966;2022-12-07T02:39:52;8.43;;;7.60;;
65202;SDS011;51788;45.124;38.966;2022-12-07T02:42:44;7.63;;;6.93;;
65202;SDS011;51788;45.124;38.966;2022-12-07T02:45:15;15.13;;;10.07;;
65202;SDS011;51788;45.124;38.966;2022-12-07T02:47:44;9.32;;;6.88;;
65202;SDS011;51788;45.124;38.966;2022-12-07T02:50:14;9.77;;;7.75;;
65202;SDS011;51788;45.124;38.966;2022-12-07T02:52:40;7.35;;;6.28;;
65202;SDS011;51788;45.124;38.966;2022-12-07T02:55:06;6.50;;;5.13;;
65202;SDS011;51788;45.124;38.966;2022-12-07T02:57:37;9.07;;;7.28;;
65202;SDS011;51788;45.124;38.966;2022-12-07T03:00:14;7.00;;;6.00;;
65202;SDS011;51788;45.124;38.966;2022-12-07T03:08:15;8.43;;;7.40;;
65202;SDS011;51788;45.124;38.966;2022-12-07T03:10:59;12.23;;;9.27;;
65202;SDS011;51788;45.124;38.966;2022-12-07T03:13:35;7.43;;;6.63;;
65202;SDS011;51788;45.124;38.966;2022-12-07T03:16:20;12.15;;;8.52;;
65202;SDS011;51788;45.124;38.966;2022-12-07T03:19:00;13.63;;;8.20;;
65202;SDS011;51788;45.124;38.966;2022-12-07T03:21:39;6.65;;;6.00;;
65202;SDS011;51788;45.124;38.966;2022-12-07T03:24:12;13.55;;;10.57;;
65202;SDS011;51788;45.124;38.966;2022-12-07T03:27:04;10.20;;;7.00;;
65202;SDS011;51788;45.124;38.966;2022-12-07T03:29:34;12.05;;;7.43;;
65202;SDS011;51788;45.124;38.966;2022-12-07T03:32:05;12.17;;;9.57;;
65202;SDS011;51788;45.124;38.966;2022-12-07T03:34:44;16.80;;;10.05;;
65202;SDS011;51788;45.124;38.966;2022-12-07T03:37:33;7.05;;;6.38;;
65202;SDS011;51788;45.124;38.966;2022-12-07T03:42:49;10.20;;;7.10;;
65202;SDS011;51788;45.124;38.966;2022-12-07T03:45:16;11.02;;;8.50;;
65202;SDS011;51788;45.124;38.966;2022-12-07T03:47:53;7.50;;;6.75;;
65202;SDS011;51788;45.124;38.966;2022-12-07T03:50:38;16.42;;;11.18;;
65202;SDS011;51788;45.124;38.966;2022-12-07T03:53:20;11.25;;;9.35;;
65202;SDS011;51788;45.124;38.966;2022-12-07T03:55:51;9.82;;;7.75;;
65202;SDS011;51788;45.124;38.966;2022-12-07T03:58:19;13.85;;;10.02;;
65202;SDS011;51788;45.124;38.966;2022-12-07T04:00:46;14.25;;;8.68;;
65202;SDS011;51788;45.124;38.966;2022-12-07T04:03:14;13.57;;;11.23;;
65202;SDS011;51788;45.124;38.966;2022-12-07T04:05:40;13.85;;;10.38;;
65202;SDS011;51788;45.124;38.966;2022-12-07T04:08:07;11.77;;;7.90;;
65202;SDS011;51788;45.124;38.966;2022-12-07T04:10:33;9.52;;;7.65;;
65202;SDS011;51788;45.124;38.966;2022-12-07T04:13:00;9.38;;;7.15;;
65202;SDS011;51788;45.124;38.966;2022-12-07T04:15:26;9.50;;;7.03;;
65202;SDS011;51788;45.124;38.966;2022-12-07T04:17:51;9.32;;;7.65;;
65202;SDS011;51788;45.124;38.966;2022-12-07T04:20:18;13.48;;;9.15;;
65202;SDS011;51788;45.124;38.966;2022-12-07T04:22:44;10.65;;;7.80;;
65202;SDS011;51788;45.124;38.966;2022-12-07T04:25:10;15.10;;;11.10;;
65202;SDS011;51788;45.124;38.966;2022-12-07T04:27:36;13.00;;;8.65;;
65202;SDS011;51788;45.124;38.966;2022-12-07T04:30:01;9.55;;;7.18;;
65202;SDS011;51788;45.124;38.966;2022-12-07T04:32:28;9.15;;;6.88;;
65202;SDS011;51788;45.124;38.966;2022-12-07T04:34:54;11.50;;;7.93;;
65202;SDS011;51788;45.124;38.966;2022-12-07T04:37:20;9.90;;;7.68;;
65202;SDS011;51788;45.124;38.966;2022-12-07T04:39:46;9.40;;;7.38;;
65202;SDS011;51788;45.124;38.966;2022-12-07T04:42:12;12.00;;;6.68;;
65202;SDS011;51788;45.124;38.966;2022-12-07T04:44:40;17.95;;;9.75;;
65202;SDS011;51788;45.124;38.966;2022-12-07T04:47:06;13.57;;;9.18;;
65202;SDS011;51788;45.124;38.966;2022-12-07T04:49:32;10.32;;;8.10;;
65202;SDS011;51788;45.124;38.966;2022-12-07T04:51:58;15.68;;;11.63;;
65202;SDS011;51788;45.124;38.966;2022-12-07T04:54:24;21.67;;;14.30;;
65202;SDS011;51788;45.124;38.966;2022-12-07T04:56:50;28.80;;;9.85;;
65202;SDS011;51788;45.124;38.966;2022-12-07T04:59:16;13.45;;;8.43;;
65202;SDS011;51788;45.124;38.966;2022-12-07T05:01:43;13.18;;;8.57;;
65202;SDS011;51788;45.124;38.966;2022-12-07T05:04:09;14.07;;;8.23;;
65202;SDS011;51788;45.124;38.966;2022-12-07T05:06:35;7.28;;;5.85;;
65202;SDS011;51788;45.124;38.966;2022-12-07T05:09:02;21.60;;;7.28;;
65202;SDS011;51788;45.124;38.966;2022-12-07T05:11:28;15.00;;;8.88;;
65202;SDS011;51788;45.124;38.966;2022-12-07T05:14:03;34.28;;;9.00;;
65202;SDS011;51788;45.124;38.966;2022-12-07T05:16:31;16.88;;;8.48;;
65202;SDS011;51788;45.124;38.966;2022-12-07T05:18:58;11.27;;;8.75;;
65202;SDS011;51788;45.124;38.966;2022-12-07T05:21:24;8.02;;;7.32;;
65202;SDS011;51788;45.124;38.966;2022-12-07T05:23:50;19.30;;;11.57;;
65202;SDS011;51788;45.124;38.966;2022-12-07T05:26:16;15.20;;;8.90;;
65202;SDS011;51788;45.124;38.966;2022-12-07T05:28:42;12.05;;;10.45;;
65202;SDS011;51788;45.124;38.966;2022-12-07T05:31:08;14.25;;;10.02;;
65202;SDS011;51788;45.124;38.966;2022-12-07T05:33:34;7.35;;;6.57;;
65202;SDS011;51788;45.124;38.966;2022-12-07T05:36:00;13.57;;;9.18;;
65202;SDS011;51788;45.124;38.966;2022-12-07T05:38:33;18.27;;;10.55;;
65202;SDS011;51788;45.124;38.966;2022-12-07T05:41:00;18.25;;;11.77;;
65202;SDS011;51788;45.124;38.966;2022-12-07T05:43:30;12.00;;;7.35;;
65202;SDS011;51788;45.124;38.966;2022-12-07T05:45:57;11.93;;;9.18;;
65202;SDS011;51788;45.124;38.966;2022-12-07T05:48:23;15.73;;;7.47;;
65202;SDS011;51788;45.124;38.966;2022-12-07T05:50:49;13.63;;;10.35;;
65202;SDS011;51788;45.124;38.966;2022-12-07T05:53:15;9.88;;;7.15;;
65202;SDS011;51788;45.124;38.966;2022-12-07T05:55:42;11.93;;;8.93;;
65202;SDS011;51788;45.124;38.966;2022-12-07T05:58:08;8.07;;;7.13;;
65202;SDS011;51788;45.124;38.966;2022-12-07T06:00:55;14.00;;;9.43;;
65202;SDS011;51788;45.124;38.966;2022-12-07T06:03:21;12.98;;;9.52;;
65202;SDS011;51788;45.124;38.966;2022-12-07T06:05:47;12.32;;;7.18;;
65202;SDS011;51788;45.124;38.966;2022-12-07T06:08:13;14.18;;;10.63;;
65202;SDS011;51788;45.124;38.966;2022-12-07T06:10:40;11.90;;;9.35;;
65202;SDS011;51788;45.124;38.966;2022-12-07T06:13:07;18.52;;;9.23;;
65202;SDS011;51788;45.124;38.966;2022-12-07T06:15:37;14.52;;;10.18;;
65202;SDS011;51788;45.124;38.966;2022-12-07T06:18:03;13.10;;;11.43;;
65202;SDS011;51788;45.124;38.966;2022-12-07T06:20:29;9.98;;;8.65;;
65202;SDS011;51788;45.124;38.966;2022-12-07T06:22:55;11.23;;;8.52;;
65202;SDS011;51788;45.124;38.966;2022-12-07T06:25:21;8.85;;;7.10;;
65202;SDS011;51788;45.124;38.966;2022-12-07T06:27:47;14.73;;;10.30;;
65202;SDS011;51788;45.124;38.966;2022-12-07T06:30:13;11.80;;;9.93;;
65202;SDS011;51788;45.124;38.966;2022-12-07T06:32:39;11.35;;;8.95;;
65202;SDS011;51788;45.124;38.966;2022-12-07T06:35:05;11.15;;;8.18;;
65202;SDS011;51788;45.124;38.966;2022-12-07T06:37:31;8.65;;;7.18;;
65202;SDS011;51788;45.124;38.966;2022-12-07T06:39:57;9.77;;;6.75;;
65202;SDS011;51788;45.124;38.966;2022-12-07T06:42:23;12.65;;;9.70;;
65202;SDS011;51788;45.124;38.966;2022-12-07T06:44:49;10.73;;;7.82;;
65202;SDS011;51788;45.124;38.966;2022-12-07T06:47:15;11.13;;;7.90;;
65202;SDS011;51788;45.124;38.966;2022-12-07T06:49:41;13.35;;;8.70;;
65202;SDS011;51788;45.124;38.966;2022-12-07T06:52:07;13.68;;;8.63;;
65202;SDS011;51788;45.124;38.966;2022-12-07T06:54:32;11.95;;;9.10;;
65202;SDS011;51788;45.124;38.966;2022-12-07T06:56:58;23.10;;;8.93;;
65202;SDS011;51788;45.124;38.966;2022-12-07T06:59:24;12.25;;;8.80;;
65202;SDS011;51788;45.124;38.966;2022-12-07T07:01:50;15.63;;;10.55;;
65202;SDS011;51788;45.124;38.966;2022-12-07T07:04:16;14.50;;;9.88;;
65202;SDS011;51788;45.124;38.966;2022-12-07T07:06:42;11.02;;;8.43;;
65202;SDS011;51788;45.124;38.966;2022-12-07T07:09:08;12.18;;;9.00;;
65202;SDS011;51788;45.124;38.966;2022-12-07T07:11:34;17.45;;;11.32;;
65202;SDS011;51788;45.124;38.966;2022-12-07T07:14:00;37.17;;;19.13;;
65202;SDS011;51788;45.124;38.966;2022-12-07T07:16:28;19.75;;;11.73;;
65202;SDS011;51788;45.124;38.966;2022-12-07T07:18:56;18.45;;;9.00;;
65202;SDS011;51788;45.124;38.966;2022-12-07T07:21:22;12.48;;;9.50;;
65202;SDS011;51788;45.124;38.966;2022-12-07T07:23:48;20.08;;;13.73;;
65202;SDS011;51788;45.124;38.966;2022-12-07T07:26:14;28.80;;;17.27;;
65202;SDS011;51788;45.124;38.966;2022-12-07T07:28:40;18.58;;;12.57;;
65202;SDS011;51788;45.124;38.966;2022-12-07T07:31:06;17.10;;;12.18;;
65202;SDS011;51788;45.124;38.966;2022-12-07T07:33:32;15.95;;;11.18;;
65202;SDS011;51788;45.124;38.966;2022-12-07T07:35:58;15.48;;;11.23;;
65202;SDS011;51788;45.124;38.966;2022-12-07T07:38:24;18.13;;;12.90;;
65202;SDS011;51788;45.124;38.966;2022-12-07T07:40:50;20.98;;;13.73;;
65202;SDS011;51788;45.124;38.966;2022-12-07T07:43:16;32.58;;;18.40;;
65202;SDS011;51788;45.124;38.966;2022-12-07T07:45:42;28.42;;;14.50;;
65202;SDS011;51788;45.124;38.966;2022-12-07T07:48:07;42.65;;;22.00;;
65202;SDS011;51788;45.124;38.966;2022-12-07T07:50:33;31.05;;;17.40;;
65202;SDS011;51788;45.124;38.966;2022-12-07T07:52:59;21.80;;;14.77;;
65202;SDS011;51788;45.124;38.966;2022-12-07T07:55:25;19.50;;;12.35;;
65202;SDS011;51788;45.124;38.966;2022-12-07T07:57:51;22.98;;;14.52;;
65202;SDS011;51788;45.124;38.966;2022-12-07T08:00:17;18.67;;;13.63;;
65202;SDS011;51788;45.124;38.966;2022-12-07T08:02:43;25.25;;;11.73;;
65202;SDS011;51788;45.124;38.966;2022-12-07T08:05:10;22.65;;;10.30;;
65202;SDS011;51788;45.124;38.966;2022-12-07T08:07:37;18.65;;;12.02;;
65202;SDS011;51788;45.124;38.966;2022-12-07T08:10:03;22.05;;;13.68;;
65202;SDS011;51788;45.124;38.966;2022-12-07T08:12:30;10.60;;;8.65;;
65202;SDS011;51788;45.124;38.966;2022-12-07T08:14:56;23.67;;;14.50;;
65202;SDS011;51788;45.124;38.966;2022-12-07T08:17:22;17.20;;;10.98;;
65202;SDS011;51788;45.124;38.966;2022-12-07T08:19:48;12.93;;;10.45;;
65202;SDS011;51788;45.124;38.966;2022-12-07T08:22:14;12.45;;;11.10;;
65202;SDS011;51788;45.124;38.966;2022-12-07T08:24:40;18.55;;;9.63;;
65202;SDS011;51788;45.124;38.966;2022-12-07T08:27:06;16.52;;;10.38;;
65202;SDS011;51788;45.124;38.966;2022-12-07T08:29:32;14.43;;;11.98;;
65202;SDS011;51788;45.124;38.966;2022-12-07T08:31:58;20.42;;;10.82;;
65202;SDS011;51788;45.124;38.966;2022-12-07T08:34:25;16.10;;;11.57;;
65202;SDS011;51788;45.124;38.966;2022-12-07T08:36:51;13.50;;;9.05;;
65202;SDS011;51788;45.124;38.966;2022-12-07T08:39:17;17.73;;;12.30;;
65202;SDS011;51788;45.124;38.966;2022-12-07T08:41:43;15.98;;;12.23;;
65202;SDS011;51788;45.124;38.966;2022-12-07T08:44:09;20.50;;;16.67;;
65202;SDS011;51788;45.124;38.966;2022-12-07T08:46:39;15.93;;;11.52;;
65202;SDS011;51788;45.124;38.966;2022-12-07T08:49:13;21.05;;;13.73;;
65202;SDS011;51788;45.124;38.966;2022-12-07T08:51:45;12.90;;;9.57;;
65202;SDS011;51788;45.124;38.966;2022-12-07T08:54:13;19.88;;;11.63;;
65202;SDS011;51788;45.124;38.966;2022-12-07T08:56:41;20.33;;;13.30;;
65202;SDS011;51788;45.124;38.966;2022-12-07T08:59:09;15.63;;;11.32;;
65202;SDS011;51788;45.124;38.966;2022-12-07T09:01:37;23.58;;;12.57;;
65202;SDS011;51788;45.124;38.966;2022-12-07T09:04:03;17.98;;;11.55;;
65202;SDS011;51788;45.124;38.966;2022-12-07T09:06:29;15.75;;;13.73;;
65202;SDS011;51788;45.124;38.966;2022-12-07T09:08:55;22.17;;;14.32;;
65202;SDS011;51788;45.124;38.966;2022-12-07T09:11:24;19.63;;;14.00;;
65202;SDS011;51788;45.124;38.966;2022-12-07T09:13:50;15.93;;;9.23;;
65202;SDS011;51788;45.124;38.966;2022-12-07T09:16:16;12.82;;;8.63;;
65202;SDS011;51788;45.124;38.966;2022-12-07T09:18:42;17.85;;;11.82;;
65202;SDS011;51788;45.124;38.966;2022-12-07T09:21:08;20.88;;;13.05;;
65202;SDS011;51788;45.124;38.966;2022-12-07T09:23:34;24.25;;;14.00;;
65202;SDS011;51788;45.124;38.966;2022-12-07T09:26:01;12.93;;;8.93;;
65202;SDS011;51788;45.124;38.966;2022-12-07T09:28:27;19.27;;;10.63;;
65202;SDS011;51788;45.124;38.966;2022-12-07T09:30:53;14.02;;;10.23;;
65202;SDS011;51788;45.124;38.966;2022-12-07T09:33:19;19.55;;;11.98;;
65202;SDS011;51788;45.124;38.966;2022-12-07T09:35:46;25.35;;;12.60;;
65202;SDS011;51788;45.124;38.966;2022-12-07T09:38:12;21.13;;;14.43;;
65202;SDS011;51788;45.124;38.966;2022-12-07T09:40:39;16.65;;;11.52;;
65202;SDS011;51788;45.124;38.966;2022-12-07T09:43:11;36.75;;;13.73;;
65202;SDS011;51788;45.124;38.966;2022-12-07T09:45:42;26.80;;;12.88;;
65202;SDS011;51788;45.124;38.966;2022-12-07T09:51:16;18.00;;;11.27;;
65202;SDS011;51788;45.124;38.966;2022-12-07T09:53:47;24.25;;;13.82;;
65202;SDS011;51788;45.124;38.966;2022-12-07T09:56:14;12.40;;;8.55;;
65202;SDS011;51788;45.124;38.966;2022-12-07T09:58:42;19.38;;;12.95;;
65202;SDS011;51788;45.124;38.966;2022-12-07T10:03:36;17.63;;;12.18;;
65202;SDS011;51788;45.124;38.966;2022-12-07T10:06:05;26.95;;;14.82;;
65202;SDS011;51788;45.124;38.966;2022-12-07T10:08:32;15.52;;;11.95;;
65202;SDS011;51788;45.124;38.966;2022-12-07T10:10:59;17.45;;;11.02;;
65202;SDS011;51788;45.124;38.966;2022-12-07T10:13:42;21.48;;;13.25;;
65202;SDS011;51788;45.124;38.966;2022-12-07T10:18:51;17.08;;;10.18;;
65202;SDS011;51788;45.124;38.966;2022-12-07T10:21:19;17.98;;;10.00;;
65202;SDS011;51788;45.124;38.966;2022-12-07T10:24:02;73.10;;;38.10;;
65202;SDS011;51788;45.124;38.966;2022-12-07T10:29:17;15.75;;;10.93;;
65202;SDS011;51788;45.124;38.966;2022-12-07T10:37:52;19.33;;;8.30;;
65202;SDS011;51788;45.124;38.966;2022-12-07T10:40:32;13.65;;;8.68;;
65202;SDS011;51788;45.124;38.966;2022-12-07T10:45:57;21.67;;;10.18;;
65202;SDS011;51788;45.124;38.966;2022-12-07T11:00:07;36.65;;;10.50;;
65202;SDS011;51788;45.124;38.966;2022-12-07T11:22:36;29.70;;;16.30;;
65202;SDS011;51788;45.124;38.966;2022-12-07T11:25:16;17.27;;;13.65;;
65202;SDS011;51788;45.124;38.966;2022-12-07T11:34:34;25.67;;;12.63;;
65202;SDS011;51788;45.124;38.966;2022-12-07T11:36:58;27.52;;;13.70;;
65202;SDS011;51788;45.124;38.966;2022-12-07T11:39:32;29.52;;;11.32;;
65202;SDS011;51788;45.124;38.966;2022-12-07T11:42:03;16.60;;;11.50;;
65202;SDS011;51788;45.124;38.966;2022-12-07T11:44:39;27.30;;;12.13;;
65202;SDS011;51788;45.124;38.966;2022-12-07T12:01:40;11.15;;;9.65;;
65202;SDS011;51788;45.124;38.966;2022-12-07T12:06:59;20.45;;;12.68;;
65202;SDS011;51788;45.124;38.966;2022-12-07T12:12:42;17.60;;;11.43;;
65202;SDS011;51788;45.124;38.966;2022-12-07T12:21:17;16.42;;;10.75;;
65202;SDS011;51788;45.124;38.966;2022-12-07T12:23:50;12.57;;;9.63;;
65202;SDS011;51788;45.124;38.966;2022-12-07T12:26:32;15.93;;;9.90;;
65202;SDS011;51788;45.124;38.966;2022-12-07T12:29:02;21.95;;;11.60;;
65202;SDS011;51788;45.124;38.966;2022-12-07T12:34:04;16.30;;;11.43;;
65202;SDS011;51788;45.124;38.966;2022-12-07T12:36:51;22.63;;;10.82;;
65202;SDS011;51788;45.124;38.966;2022-12-07T12:39:17;19.80;;;11.88;;
65202;SDS011;51788;45.124;38.966;2022-12-07T12:46:47;21.02;;;13.70;;
65202;SDS011;51788;45.124;38.966;2022-12-07T12:49:33;17.85;;;10.95;;
65202;SDS011;51788;45.124;38.966;2022-12-07T12:54:38;31.98;;;11.35;;
65202;SDS011;51788;45.124;38.966;2022-12-07T13:02:28;19.35;;;11.50;;
65202;SDS011;51788;45.124;38.966;2022-12-07T13:04:58;14.75;;;11.23;;
65202;SDS011;51788;45.124;38.966;2022-12-07T13:13:25;17.38;;;11.07;;
65202;SDS011;51788;45.124;38.966;2022-12-07T13:15:51;24.88;;;11.60;;
65202;SDS011;51788;45.124;38.966;2022-12-07T13:18:41;22.95;;;13.15;;
65202;SDS011;51788;45.124;38.966;2022-12-07T13:23:54;41.25;;;14.50;;
65202;SDS011;51788;45.124;38.966;2022-12-07T13:34:02;44.25;;;19.10;;
65202;SDS011;51788;45.124;38.966;2022-12-07T13:36:31;32.10;;;17.83;;
65202;SDS011;51788;45.124;38.966;2022-12-07T13:39:10;24.00;;;13.50;;
65202;SDS011;51788;45.124;38.966;2022-12-07T13:41:52;27.60;;;14.88;;
65202;SDS011;51788;45.124;38.966;2022-12-07T13:44:23;34.20;;;17.20;;
65202;SDS011;51788;45.124;38.966;2022-12-07T13:49:27;49.53;;;22.23;;
65202;SDS011;51788;45.124;38.966;2022-12-07T13:51:55;47.45;;;21.95;;
65202;SDS011;51788;45.124;38.966;2022-12-07T13:54:43;43.45;;;20.35;;
65202;SDS011;51788;45.124;38.966;2022-12-07T13:57:29;43.15;;;19.40;;
65202;SDS011;51788;45.124;38.966;2022-12-07T14:02:32;29.95;;;15.20;;
65202;SDS011;51788;45.124;38.966;2022-12-07T14:05:08;26.13;;;14.70;;
65202;SDS011;51788;45.124;38.966;2022-12-07T14:07:49;37.88;;;12.35;;
65202;SDS011;51788;45.124;38.966;2022-12-07T14:10:27;21.50;;;13.43;;
65202;SDS011;51788;45.124;38.966;2022-12-07T14:16:02;30.75;;;13.70;;
65202;SDS011;51788;45.124;38.966;2022-12-07T14:18:38;30.58;;;13.15;;
65202;SDS011;51788;45.124;38.966;2022-12-07T14:23:41;22.95;;;13.98;;
65202;SDS011;51788;45.124;38.966;2022-12-07T14:28:40;19.63;;;12.10;;
65202;SDS011;51788;45.124;38.966;2022-12-07T14:31:12;30.23;;;13.10;;
65202;SDS011;51788;45.124;38.966;2022-12-07T14:33:40;25.83;;;12.35;;
65202;SDS011;51788;45.124;38.966;2022-12-07T14:36:13;21.55;;;12.40;;
65202;SDS011;51788;45.124;38.966;2022-12-07T14:38:39;40.17;;;16.13;;
65202;SDS011;51788;45.124;38.966;2022-12-07T14:41:06;39.78;;;14.63;;
65202;SDS011;51788;45.124;38.966;2022-12-07T14:43:58;19.83;;;11.75;;
65202;SDS011;51788;45.124;38.966;2022-12-07T14:46:25;26.58;;;14.68;;
65202;SDS011;51788;45.124;38.966;2022-12-07T14:48:51;26.75;;;13.90;;
65202;SDS011;51788;45.124;38.966;2022-12-07T14:51:17;46.25;;;18.42;;
65202;SDS011;51788;45.124;38.966;2022-12-07T14:53:44;28.05;;;16.05;;
65202;SDS011;51788;45.124;38.966;2022-12-07T14:56:13;36.97;;;16.20;;
65202;SDS011;51788;45.124;38.966;2022-12-07T14:58:39;32.33;;;14.55;;
65202;SDS011;51788;45.124;38.966;2022-12-07T15:01:05;40.63;;;17.75;;
65202;SDS011;51788;45.124;38.966;2022-12-07T15:03:31;42.08;;;19.23;;
65202;SDS011;51788;45.124;38.966;2022-12-07T15:06:00;51.08;;;22.33;;
65202;SDS011;51788;45.124;38.966;2022-12-07T15:08:26;38.25;;;18.17;;
65202;SDS011;51788;45.124;38.966;2022-12-07T15:10:52;33.08;;;17.05;;
65202;SDS011;51788;45.124;38.966;2022-12-07T15:13:18;30.75;;;16.60;;
65202;SDS011;51788;45.124;38.966;2022-12-07T15:16:02;33.15;;;18.75;;
65202;SDS011;51788;45.124;38.966;2022-12-07T15:18:29;28.92;;;16.55;;
65202;SDS011;51788;45.124;38.966;2022-12-07T15:20:54;41.08;;;18.10;;
65202;SDS011;51788;45.124;38.966;2022-12-07T15:23:20;62.90;;;19.85;;
65202;SDS011;51788;45.124;38.966;2022-12-07T15:25:47;64.25;;;20.88;;
65202;SDS011;51788;45.124;38.966;2022-12-07T15:28:13;48.03;;;21.70;;
65202;SDS011;51788;45.124;38.966;2022-12-07T15:30:40;41.83;;;18.77;;
65202;SDS011;51788;45.124;38.966;2022-12-07T15:33:11;44.88;;;21.23;;
65202;SDS011;51788;45.124;38.966;2022-12-07T15:35:41;49.13;;;25.45;;
65202;SDS011;51788;45.124;38.966;2022-12-07T15:38:09;37.00;;;19.33;;
65202;SDS011;51788;45.124;38.966;2022-12-07T15:40:35;38.03;;;21.20;;
65202;SDS011;51788;45.124;38.966;2022-12-07T15:43:01;44.00;;;18.60;;
65202;SDS011;51788;45.124;38.966;2022-12-07T15:45:28;41.65;;;20.92;;
65202;SDS011;51788;45.124;38.966;2022-12-07T15:47:54;29.35;;;16.40;;
65202;SDS011;51788;45.124;38.966;2022-12-07T15:50:20;34.42;;;17.67;;
65202;SDS011;51788;45.124;38.966;2022-12-07T15:52:48;40.05;;;20.08;;
65202;SDS011;51788;45.124;38.966;2022-12-07T15:55:14;62.38;;;20.17;;
65202;SDS011;51788;45.124;38.966;2022-12-07T15:57:40;40.53;;;19.88;;
65202;SDS011;51788;45.124;38.966;2022-12-07T16:00:07;34.00;;;16.52;;
65202;SDS011;51788;45.124;38.966;2022-12-07T16:02:34;27.15;;;15.82;;
65202;SDS011;51788;45.124;38.966;2022-12-07T16:05:01;28.42;;;15.73;;
65202;SDS011;51788;45.124;38.966;2022-12-07T16:07:28;24.60;;;15.27;;
65202;SDS011;51788;45.124;38.966;2022-12-07T16:09:54;24.60;;;13.45;;
65202;SDS011;51788;45.124;38.966;2022-12-07T16:12:20;29.63;;;15.75;;
65202;SDS011;51788;45.124;38.966;2022-12-07T16:14:46;31.95;;;16.17;;
65202;SDS011;51788;45.124;38.966;2022-12-07T16:17:12;34.05;;;16.17;;
65202;SDS011;51788;45.124;38.966;2022-12-07T16:19:38;33.40;;;17.77;;
65202;SDS011;51788;45.124;38.966;2022-12-07T16:22:04;39.60;;;17.90;;
65202;SDS011;51788;45.124;38.966;2022-12-07T16:24:31;31.15;;;15.55;;
65202;SDS011;51788;45.124;38.966;2022-12-07T16:26:57;24.88;;;14.90;;
65202;SDS011;51788;45.124;38.966;2022-12-07T16:29:23;26.65;;;15.35;;
65202;SDS011;51788;45.124;38.966;2022-12-07T16:31:49;44.40;;;17.90;;
65202;SDS011;51788;45.124;38.966;2022-12-07T16:34:17;20.33;;;13.93;;
65202;SDS011;51788;45.124;38.966;2022-12-07T16:36:43;40.55;;;14.43;;
65202;SDS011;51788;45.124;38.966;2022-12-07T16:39:09;30.55;;;18.13;;
65202;SDS011;51788;45.124;38.966;2022-12-07T16:41:35;28.02;;;15.15;;
65202;SDS011;51788;45.124;38.966;2022-12-07T16:44:02;25.58;;;15.43;;
65202;SDS011;51788;45.124;38.966;2022-12-07T16:46:33;25.67;;;15.00;;
65202;SDS011;51788;45.124;38.966;2022-12-07T16:48:59;33.22;;;15.77;;
65202;SDS011;51788;45.124;38.966;2022-12-07T16:51:25;33.00;;;17.75;;
65202;SDS011;51788;45.124;38.966;2022-12-07T16:53:52;38.72;;;18.90;;
65202;SDS011;51788;45.124;38.966;2022-12-07T16:56:19;28.38;;;17.00;;
65202;SDS011;51788;45.124;38.966;2022-12-07T16:58:45;38.28;;;16.00;;
65202;SDS011;51788;45.124;38.966;2022-12-07T17:01:16;42.50;;;20.80;;
65202;SDS011;51788;45.124;38.966;2022-12-07T17:03:43;42.30;;;22.35;;